F/v.oceane — FHDQ — position and weather

sailwx.info

Track history (hours):
 
Tides and Currents Weather Stations Pressure Air Temp Water Temp Dewpoint Dewpoint Depression Visibility Wind Speed Wind Dir Waves Ship Positions

F/v.oceane

Last reported at 2017-Sep-18 10:36 UTC. Time now 2017-Sep-21 07:12 UTC.
Position N 48°43' W 004°33'.

Length 18 m; draft 3.2 m.

Type: Fishing. MMSI: 228827000.

Date/timePositionNaut miles runAvg speedWind from/ knotsBaromVisibWave heightAir tempDewpointWater temp
2017-Sep-18 10:36N 48°43' W 004°33'4 8.2
2017-Sep-18 10:07N 48°42' W 004°39'1 8.0
2017-Sep-18 10:00N 48°42' W 004°41'4 7.7
2017-Sep-18 09:30N 48°41' W 004°46'4 7.2
2017-Sep-18 09:00N 48°40' W 004°52'4 7.2
2017-Sep-18 08:30N 48°39' W 004°57'4 7.3
2017-Sep-18 08:00N 48°39' W 005°02'4 7.2
2017-Sep-18 07:30N 48°38' W 005°08'  
2017-Sep-13 04:38N 48°47' W 005°25'0 1.1
2017-Sep-13 04:18N 48°48' W 005°25'2 0.1
2017-Sep-12 12:04N 48°46' W 005°23'1 7.6
2017-Sep-12 11:59N 48°46' W 005°22'1 0.7
2017-Sep-12 10:13N 48°47' W 005°23'2 0.3
2017-Sep-12 03:59N 48°45' W 005°21'3 5.5
2017-Sep-12 03:30N 48°45' W 005°17'3 5.7
2017-Sep-12 03:00N 48°45' W 005°13'3 5.8
2017-Sep-12 02:30N 48°44' W 005°09'3 5.9
2017-Sep-12 02:00N 48°43' W 005°04'3 5.9
2017-Sep-12 01:30N 48°43' W 005°00'3 6.2
2017-Sep-12 01:01N 48°42' W 004°55'3 5.9
2017-Sep-12 00:31N 48°42' W 004°51'3 6.2
2017-Sep-12 00:00N 48°42' W 004°46'3 5.8
2017-Sep-11 23:30N 48°42' W 004°42'3 5.6
2017-Sep-11 23:01N 48°42' W 004°38'3 6.2
2017-Sep-11 22:27N 48°42' W 004°32'4 7.4
2017-Sep-11 21:58N 48°43' W 004°27'  
Track history (hours):
 
Tides and Currents Weather Stations Pressure Air Temp Water Temp Dewpoint Dewpoint Depression Visibility Wind Speed Wind Dir Waves Ship Positions

F/v.oceane

Last reported at 2017-Sep-18 10:36 UTC. Time now 2017-Sep-21 07:12 UTC.
Position N 48°43' W 004°33'.

Length 18 m; draft 3.2 m.

Type: Fishing. MMSI: 228827000.

Date/timePositionNaut miles runAvg speedWind from/ knotsBaromVisibWave heightAir tempDewpointWater temp
2017-Sep-18 10:36N 48°43' W 004°33'4 8.2
2017-Sep-18 10:07N 48°42' W 004°39'1 8.0
2017-Sep-18 10:00N 48°42' W 004°41'4 7.7
2017-Sep-18 09:30N 48°41' W 004°46'4 7.2
2017-Sep-18 09:00N 48°40' W 004°52'4 7.2
2017-Sep-18 08:30N 48°39' W 004°57'4 7.3
2017-Sep-18 08:00N 48°39' W 005°02'4 7.2
2017-Sep-18 07:30N 48°38' W 005°08'  
2017-Sep-13 04:38N 48°47' W 005°25'0 1.1
2017-Sep-13 04:18N 48°48' W 005°25'2 0.1
2017-Sep-12 12:04N 48°46' W 005°23'1 7.6
2017-Sep-12 11:59N 48°46' W 005°22'1 0.7
2017-Sep-12 10:13N 48°47' W 005°23'2 0.3
2017-Sep-12 03:59N 48°45' W 005°21'3 5.5
2017-Sep-12 03:30N 48°45' W 005°17'3 5.7
2017-Sep-12 03:00N 48°45' W 005°13'3 5.8
2017-Sep-12 02:30N 48°44' W 005°09'3 5.9
2017-Sep-12 02:00N 48°43' W 005°04'3 5.9
2017-Sep-12 01:30N 48°43' W 005°00'3 6.2
2017-Sep-12 01:01N 48°42' W 004°55'3 5.9
2017-Sep-12 00:31N 48°42' W 004°51'3 6.2
2017-Sep-12 00:00N 48°42' W 004°46'3 5.8
2017-Sep-11 23:30N 48°42' W 004°42'3 5.6
2017-Sep-11 23:01N 48°42' W 004°38'3 6.2
2017-Sep-11 22:27N 48°42' W 004°32'4 7.4
2017-Sep-11 21:58N 48°43' W 004°27'  

Dump ship's entire track history